Time;durP1;ratioP1;P1;durP2;ratioP2;P2;SDS_P1;SDS_P2;PMS_P1;PMS_P2;Temp;Humidity;BMP_temperature;BMP_pressure;BME280_temperature;BME280_humidity;BME280_pressure;Samples;Min_cycle;Max_cycle;Signal;HPM_P1;HPM_P2
2022/06/07 00:01:27;;;;;;;;;;;;;;;12.69;100.00;-25423.56;5036147;28;20399;-80
2022/06/07 00:03:52;;;;;;;;;;;;;;;12.70;100.00;-25424.00;5060078;28;19980;-79
2022/06/07 00:06:17;;;;;;;;;;;;;;;12.68;100.00;-25423.41;5072275;28;19924;-75
2022/06/07 00:08:43;;;;;;;;;;;;;;;12.70;100.00;-25424.00;5072917;28;19927;-78
2022/06/07 00:11:08;;;;;;;;;;;;;;;12.68;100.00;-25423.41;5072669;28;19927;-79
2022/06/07 00:13:34;;;;;;;;;;;;;;;12.71;100.00;-25424.28;5058087;28;19927;-78
2022/06/07 00:16:00;;;;;;;;;;;;;;;12.71;100.00;-25424.16;5066468;28;20356;-76
2022/06/07 00:18:25;;;;;;;;;;;;;;;12.70;100.00;-25423.84;5061254;28;19928;-77
2022/06/07 00:20:50;;;;;;;;;;;;;;;12.71;100.00;-25424.16;5067417;28;19924;-76
2022/06/07 00:23:17;;;;;;;;;;;;;;;12.67;100.00;-25423.13;5063035;28;19916;-74
2022/06/07 00:25:43;;;;;;;;;;;;;;;12.75;100.00;-25425.31;5058223;28;19920;-78
2022/06/07 00:28:09;;;;;;;;;;;;;;;12.74;100.00;-25425.16;5054228;28;20354;-79
2022/06/07 00:30:34;;;;;;;;;;;;;;;12.74;100.00;-25425.16;5051735;28;19974;-79
2022/06/07 00:33:01;;;;;;;;;;;;;;;12.71;100.00;-25424.28;5058536;28;20011;-79
2022/06/07 00:35:27;;;;;;;;;;;;;;;12.71;100.00;-25424.16;5072209;28;19952;-79
2022/06/07 00:37:52;;;;;;;;;;;;;;;12.71;100.00;-25424.28;5073215;28;19928;-79
2022/06/07 00:40:17;;;;;;;;;;;;;;;12.77;100.00;-25425.75;5072526;28;19921;-78
2022/06/07 00:42:46;;;;;;;;;;;;;;;12.78;100.00;-25426.19;5056242;28;19963;-80
2022/06/07 00:45:14;;;;;;;;;;;;;;;12.78;100.00;-25426.19;5071567;28;20045;-80
2022/06/07 00:47:39;;;;;;;;;;;;;;;12.79;100.00;-25426.47;5076045;28;19916;-80
2022/06/07 00:50:08;;;;;;;;;;;;;;;12.77;100.00;-25425.75;5076440;28;19920;-79
2022/06/07 00:52:35;;;;;;;;;;;;;;;12.77;100.00;-25425.75;5065978;28;19927;-77
2022/06/07 00:55:01;;;;;;;;;;;;;;;12.77;100.00;-25425.75;5068353;28;20020;-79
2022/06/07 00:57:27;;;;;;;;;;;;;;;12.65;100.00;-25422.41;5076738;28;20329;-80
2022/06/07 00:59:52;;;;;;;;;;;;;;;12.67;100.00;-25423.13;5074154;28;19965;-80
2022/06/07 01:02:19;;;;;;;;;;;;;;;12.67;100.00;-25422.97;5069533;28;20019;-80
2022/06/07 01:04:44;;;;;;;;;;;;;;;12.68;100.00;-25423.41;5066824;28;19969;-77
2022/06/07 01:12:37;;;;;;;;;;;;;;;12.63;100.00;-25421.97;5083701;28;19927;-80
2022/06/07 01:15:03;;;;;;;;;;;;;;;12.66;100.00;-25422.69;5088486;28;19920;-81
2022/06/07 01:17:28;;;;;;;;;;;;;;;12.66;100.00;-25422.69;5056652;28;19926;-80
2022/06/07 01:19:54;;;;;;;;;;;;;;;12.67;100.00;-25422.97;5075987;28;19916;-79
2022/06/07 01:22:19;;;;;;;;;;;;;;;12.66;100.00;-25422.69;5061785;28;20434;-74
2022/06/07 01:24:45;;;;;;;;;;;;;;;12.66;100.00;-25422.84;5063610;28;19920;-75
2022/06/07 01:27:10;;;;;;;;;;;;;;;12.70;100.00;-25424.00;5070970;28;19916;-74
2022/06/07 01:29:36;;;;;;;;;;;;;;;12.72;100.00;-25424.44;5060526;28;20030;-74
2022/06/07 01:32:02;;;;;;;;;;;;;;;12.66;100.00;-25422.84;5064404;28;19928;-75
2022/06/07 01:34:27;;;;;;;;;;;;;;;12.66;100.00;-25422.84;5062216;28;19920;-74
2022/06/07 01:36:56;;;;;;;;;;;;;;;12.65;100.00;-25422.41;5062956;28;19921;-74
2022/06/07 01:42:07;;;;;;;;;;;;;;;12.63;100.00;-25421.81;5087658;28;19935;-79
2022/06/07 01:44:37;;;;;;;;;;;;;;;12.64;100.00;-25422.25;5066678;28;19920;-77
2022/06/07 01:47:02;;;;;;;;;;;;;;;12.63;100.00;-25421.81;5075781;28;19916;-77
2022/06/07 01:49:28;;;;;;;;;;;;;;;12.61;100.00;-25421.22;5072647;28;20667;-79
2022/06/07 01:51:54;;;;;;;;;;;;;;;12.63;100.00;-25421.81;5072992;28;19927;-74
2022/06/07 01:54:21;;;;;;;;;;;;;;;12.64;100.00;-25422.09;5062727;28;19973;-73
2022/06/07 01:56:47;;;;;;;;;;;;;;;12.59;100.00;-25420.63;5061880;28;19920;-76
2022/06/07 01:59:12;;;;;;;;;;;;;;;12.61;100.00;-25421.22;5073838;28;19936;-76
2022/06/07 02:01:37;;;;;;;;;;;;;;;12.63;100.00;-25421.81;5072053;28;20365;-76
2022/06/07 02:04:05;;;;;;;;;;;;;;;12.62;100.00;-25421.53;5055554;28;19928;-74
2022/06/07 02:06:30;;;;;;;;;;;;;;;12.62;100.00;-25421.53;5073638;28;19928;-79
2022/06/07 02:08:56;;;;;;;;;;;;;;;12.64;100.00;-25422.25;5074070;28;19920;-76
2022/06/07 02:11:22;;;;;;;;;;;;;;;12.60;100.00;-25420.94;5074522;28;19916;-77
2022/06/07 02:13:49;;;;;;;;;;;;;;;12.57;100.00;-25420.19;5059027;28;19923;-78
2022/06/07 02:16:15;;;;;;;;;;;;;;;12.56;100.00;-25420.06;5071790;28;19920;-78
2022/06/07 02:18:40;;;;;;;;;;;;;;;12.60;100.00;-25420.94;5072516;28;20014;-78
2022/06/07 02:21:06;;;;;;;;;;;;;;;12.57;100.00;-25420.34;5073889;28;19912;-75
2022/06/07 02:23:33;;;;;;;;;;;;;;;12.57;100.00;-25420.34;5059208;28;19920;-73
2022/06/07 02:26:08;;;;;;;;;;;;;;;12.59;100.00;-25420.78;5070798;28;19920;-73
2022/06/07 02:28:35;;;;;;;;;;;;;;;12.59;100.00;-25420.63;5072320;28;20464;-75
2022/06/07 02:31:03;;;;;;;;;;;;;;;12.55;100.00;-25419.63;5072845;28;19924;-75
2022/06/07 02:33:28;;;;;;;;;;;;;;;12.54;100.00;-25419.31;5060067;28;19916;-73
2022/06/07 02:35:54;;;;;;;;;;;;;;;12.53;100.00;-25419.19;5060972;28;19920;-74
2022/06/07 02:38:20;;;;;;;;;;;;;;;12.54;100.00;-25419.47;5067558;28;19970;-74
2022/06/07 02:40:47;;;;;;;;;;;;;;;12.51;100.00;-25418.44;5065808;28;20016;-74
2022/06/07 02:43:13;;;;;;;;;;;;;;;12.51;100.00;-25418.59;5062659;28;19920;-76
2022/06/07 02:45:39;;;;;;;;;;;;;;;12.48;100.00;-25417.72;5064836;28;20022;-74
2022/06/07 02:48:04;;;;;;;;;;;;;;;12.48;100.00;-25417.56;5069450;28;20011;-75
2022/06/07 02:50:29;;;;;;;;;;;;;;;12.47;100.00;-25417.28;5071816;28;19978;-77
2022/06/07 02:53:02;;;;;;;;;;;;;;;12.47;100.00;-25417.28;5064753;28;19927;-78
2022/06/07 02:55:28;;;;;;;;;;;;;;;12.47;100.00;-25417.41;5051337;28;19994;-81
2022/06/07 02:57:53;;;;;;;;;;;;;;;12.48;100.00;-25417.72;5055964;28;20207;-79
2022/06/07 03:00:18;;;;;;;;;;;;;;;12.48;100.00;-25417.72;5073774;28;20080;-80
2022/06/07 03:02:48;;;;;;;;;;;;;;;12.46;100.00;-25416.97;5073278;28;19920;-79
2022/06/07 03:05:14;;;;;;;;;;;;;;;12.51;100.00;-25418.59;5073867;28;20520;-81
2022/06/07 03:07:40;;;;;;;;;;;;;;;12.48;100.00;-25417.72;5074357;28;20006;-76
2022/06/07 03:10:06;;;;;;;;;;;;;;;12.49;100.00;-25417.84;5071304;28;20350;-77
2022/06/07 03:12:32;;;;;;;;;;;;;;;12.48;100.00;-25417.72;5053553;28;19959;-77
2022/06/07 03:14:58;;;;;;;;;;;;;;;12.46;100.00;-25417.13;5059508;28;20273;-78
2022/06/07 03:17:24;;;;;;;;;;;;;;;12.45;100.00;-25416.69;5089036;28;19916;-81
2022/06/07 03:19:50;;;;;;;;;;;;;;;12.47;100.00;-25417.41;5073263;28;19928;-80
2022/06/07 03:22:16;;;;;;;;;;;;;;;12.45;100.00;-25416.84;5068180;28;19916;-80
2022/06/07 03:24:41;;;;;;;;;;;;;;;12.47;100.00;-25417.28;5063791;28;19927;-78
2022/06/07 03:27:06;;;;;;;;;;;;;;;12.46;100.00;-25417.13;5074011;28;19912;-80
2022/06/07 03:29:32;;;;;;;;;;;;;;;12.42;100.00;-25415.97;5071222;28;19967;-81
2022/06/07 03:31:57;;;;;;;;;;;;;;;12.42;100.00;-25415.97;5073708;28;19920;-81
2022/06/07 03:34:22;;;;;;;;;;;;;;;12.44;100.00;-25416.41;5062414;28;19916;-81
2022/06/07 03:36:47;;;;;;;;;;;;;;;12.50;100.00;-25418.31;5064761;28;19963;-75
2022/06/07 03:39:13;;;;;;;;;;;;;;;12.47;100.00;-25417.28;5073041;28;19920;-81
2022/06/07 03:41:38;;;;;;;;;;;;;;;12.48;100.00;-25417.56;5070056;28;19927;-80
2022/06/07 03:44:04;;;;;;;;;;;;;;;12.52;100.00;-25418.75;5055869;28;19927;-77
2022/06/07 03:46:30;;;;;;;;;;;;;;;12.54;100.00;-25419.47;5063850;28;19929;-75
2022/06/07 03:48:55;;;;;;;;;;;;;;;12.56;100.00;-25420.06;5070691;28;20372;-76
2022/06/07 03:51:22;;;;;;;;;;;;;;;12.52;100.00;-25418.88;5069150;28;19916;-78
2022/06/07 03:53:48;;;;;;;;;;;;;;;12.58;100.00;-25420.50;5031513;28;19932;-77
2022/06/07 03:56:14;;;;;;;;;;;;;;;12.60;100.00;-25421.09;5050686;28;19916;-75
2022/06/07 03:58:39;;;;;;;;;;;;;;;12.60;100.00;-25421.09;5068209;28;19924;-74
2022/06/07 04:01:06;;;;;;;;;;;;;;;12.60;100.00;-25421.09;5075948;28;19924;-74
2022/06/07 04:03:31;;;;;;;;;;;;;;;12.60;100.00;-25421.09;5063028;28;19920;-73
2022/06/07 04:05:57;;;;;;;;;;;;;;;12.64;100.00;-25422.09;5070480;28;19924;-74
2022/06/07 04:08:22;;;;;;;;;;;;;;;12.64;100.00;-25422.25;5071646;28;20011;-77
2022/06/07 04:10:49;;;;;;;;;;;;;;;12.65;100.00;-25422.41;5056107;28;19952;-78
2022/06/07 04:13:16;;;;;;;;;;;;;;;12.62;100.00;-25421.53;5056064;28;19943;-77
2022/06/07 04:15:42;;;;;;;;;;;;;;;12.67;100.00;-25422.97;5054685;28;19920;-75
2022/06/07 04:18:07;;;;;;;;;;;;;;;12.70;100.00;-25424.00;5070842;28;20346;-75
2022/06/07 04:20:32;;;;;;;;;;;;;;;12.71;100.00;-25424.28;5074337;28;19920;-78
2022/06/07 04:22:58;;;;;;;;;;;;;;;12.68;100.00;-25423.28;5059307;28;19931;-79
2022/06/07 04:25:24;;;;;;;;;;;;;;;12.71;100.00;-25424.28;5070030;28;19966;-80
2022/06/07 04:27:50;;;;;;;;;;;;;;;12.76;100.00;-25425.59;5076602;28;19965;-78
2022/06/07 04:30:16;;;;;;;;;;;;;;;12.75;100.00;-25425.47;5076382;28;19963;-79
2022/06/07 04:32:46;;;;;;;;;;;;;;;12.77;100.00;-25425.75;5073618;28;20583;-75
2022/06/07 04:35:12;;;;;;;;;;;;;;;12.88;100.00;-25428.97;5051533;28;19921;-80
2022/06/07 04:37:37;;;;;;;;;;;;;;;12.90;100.00;-25429.69;5064443;28;20024;-81
2022/06/07 04:40:03;;;;;;;;;;;;;;;12.87;100.00;-25428.81;5035975;28;20412;-78
2022/06/07 04:42:28;;;;;;;;;;;;;;;12.92;100.00;-25430.28;5037398;28;20261;-78
2022/06/07 04:44:53;;;;;;;;;;;;;;;12.96;100.00;-25431.16;5060471;28;19923;-78
2022/06/07 04:47:19;;;;;;;;;;;;;;;12.96;100.00;-25431.31;5067322;28;20406;-77
2022/06/07 04:49:44;;;;;;;;;;;;;;;13.00;100.00;-25432.47;5067495;28;19927;-78
2022/06/07 04:52:09;;;;;;;;;;;;;;;13.02;100.00;-25433.06;5061920;28;19935;-76
2022/06/07 04:54:35;;;;;;;;;;;;;;;13.01;100.00;-25432.78;5063944;28;19977;-77
2022/06/07 04:57:02;;;;;;;;;;;;;;;13.11;100.00;-25435.53;5077320;28;19963;-81
2022/06/07 04:59:28;;;;;;;;;;;;;;;13.19;100.00;-25437.88;5055018;28;20096;-78
2022/06/07 05:01:53;;;;;;;;;;;;;;;13.25;100.00;-25439.47;5066255;28;19980;-77
2022/06/07 05:04:19;;;;;;;;;;;;;;;13.28;100.00;-25440.50;5058716;28;19947;-75
2022/06/07 05:06:46;;;;;;;;;;;;;;;13.33;100.00;-25441.69;5064627;28;19920;-78
2022/06/07 05:09:20;;;;;;;;;;;;;;;13.33;100.00;-25441.69;5075342;28;19924;-75
2022/06/07 05:11:46;;;;;;;;;;;;;;;13.33;100.00;-25441.81;5055386;28;19927;-79
2022/06/07 05:14:13;;;;;;;;;;;;;;;13.33;100.00;-25441.81;5068896;28;20380;-76
2022/06/07 05:16:41;;;;;;;;;;;;;;;13.36;100.00;-25442.72;5092898;28;19928;-76
2022/06/07 05:19:06;;;;;;;;;;;;;;;13.43;100.00;-25444.75;5070824;28;20444;-75
2022/06/07 05:21:32;;;;;;;;;;;;;;;13.55;100.00;-25447.94;5069157;28;20007;-75
2022/06/07 05:23:58;;;;;;;;;;;;;;;13.63;100.00;-25450.44;5055529;28;20413;-79
2022/06/07 05:26:37;;;;;;;;;;;;;;;13.72;100.00;-25452.78;5057099;28;20004;-78
2022/06/07 05:29:03;;;;;;;;;;;;;;;13.68;100.00;-25451.59;5076857;28;20435;-79
2022/06/07 05:31:28;;;;;;;;;;;;;;;13.67;100.00;-25451.47;5072347;28;19932;-80
2022/06/07 05:33:54;;;;;;;;;;;;;;;13.73;100.00;-25453.22;5055545;28;20368;-78
2022/06/07 05:36:20;;;;;;;;;;;;;;;14.01;100.00;-25461.09;5053014;28;19948;-78
2022/06/07 05:38:46;;;;;;;;;;;;;;;14.21;100.00;-25466.78;5055677;28;20080;-77
2022/06/07 05:41:13;;;;;;;;;;;;;;;14.18;100.00;-25466.03;5056008;28;19913;-76
2022/06/07 05:43:39;;;;;;;;;;;;;;;14.32;100.00;-25469.97;5055810;28;19931;-74
2022/06/07 05:46:04;;;;;;;;;;;;;;;14.32;100.00;-25469.84;5054835;28;20377;-74
2022/06/07 05:48:33;;;;;;;;;;;;;;;14.26;100.00;-25468.22;5053986;28;19927;-75
2022/06/07 05:50:58;;;;;;;;;;;;;;;14.18;100.00;-25465.91;5055255;28;19916;-76
2022/06/07 05:53:23;;;;;;;;;;;;;;;14.19;100.00;-25466.19;5055199;28;20023;-74
2022/06/07 05:55:49;;;;;;;;;;;;;;;14.17;100.00;-25465.59;5054723;28;19985;-79
2022/06/07 05:58:14;;;;;;;;;;;;;;;14.35;100.00;-25470.84;5055672;28;20420;-78
2022/06/07 06:00:41;;;;;;;;;;;;;;;14.48;100.00;-25474.34;5054540;28;19925;-79
2022/06/07 06:03:09;;;;;;;;;;;;;;;14.59;100.00;-25477.56;5054300;28;19924;-76
2022/06/07 06:05:35;;;;;;;;;;;;;;;14.67;100.00;-25479.88;5054983;28;19916;-77
2022/06/07 06:10:44;;;;;;;;;;;;;;;15.04;100.00;-25490.38;5060983;28;19977;-78
2022/06/07 06:13:12;;;;;;;;;;;;;;;15.11;100.00;-25492.13;5070112;28;19920;-79
2022/06/07 06:15:37;;;;;;;;;;;;;;;15.22;100.00;-25495.31;5070925;28;19920;-76
2022/06/07 06:18:03;;;;;;;;;;;;;;;15.22;100.00;-25495.47;5073615;28;19969;-76
2022/06/07 06:20:28;;;;;;;;;;;;;;;15.29;100.00;-25497.34;5074359;28;20004;-77
2022/06/07 06:22:57;;;;;;;;;;;;;;;15.17;100.00;-25493.88;5074092;28;20005;-75
2022/06/07 06:25:22;;;;;;;;;;;;;;;15.18;100.00;-25494.31;5073766;28;19959;-76
2022/06/07 06:27:48;;;;;;;;;;;;;;;14.99;100.00;-25488.91;5072466;28;20284;-75
2022/06/07 06:30:13;;;;;;;;;;;;;;;15.06;100.00;-25490.97;5054550;28;19955;-74
2022/06/07 06:32:39;;;;;;;;;;;;;;;15.11;100.00;-25492.13;5053730;28;20261;-76
2022/06/07 06:35:04;;;;;;;;;;;;;;;15.12;100.00;-25492.56;5056944;28;19925;-75
2022/06/07 06:37:31;;;;;;;;;;;;;;;15.17;100.00;-25494.00;5052163;28;20404;-75
2022/06/07 06:39:57;;;;;;;;;;;;;;;15.21;100.00;-25495.03;5057330;28;20371;-75
2022/06/07 06:42:22;;;;;;;;;;;;;;;15.22;100.00;-25495.31;5054268;28;19924;-74
2022/06/07 06:44:48;;;;;;;;;;;;;;;15.10;100.00;-25491.81;5053090;28;20141;-75
2022/06/07 06:47:13;;;;;;;;;;;;;;;15.04;100.00;-25490.22;5054008;28;20288;-76
2022/06/07 06:49:41;;;;;;;;;;;;;;;15.11;100.00;-25492.13;5053521;28;19981;-73
2022/06/07 06:52:06;;;;;;;;;;;;;;;15.24;100.00;-25495.91;5053168;28;19916;-74
2022/06/07 06:54:34;;;;;;;;;;;;;;;15.32;100.00;-25498.09;5053535;28;20280;-74
2022/06/07 06:57:01;;;;;;;;;;;;;;;15.51;100.00;-25503.47;5071794;28;19966;-77
2022/06/07 06:59:26;;;;;;;;;;;;;;;15.67;100.00;-25508.13;5053516;28;20017;-74
2022/06/07 07:01:53;;;;;;;;;;;;;;;15.86;100.00;-25513.34;5053524;28;19917;-78
2022/06/07 07:04:21;;;;;;;;;;;;;;;16.37;100.00;-25527.88;5053977;28;19917;-76
2022/06/07 07:06:47;;;;;;;;;;;;;;;16.81;100.00;-25540.38;5053279;28;20452;-77
2022/06/07 07:09:14;;;;;;;;;;;;;;;16.91;100.00;-25542.97;5053982;28;19987;-79
2022/06/07 07:11:41;;;;;;;;;;;;;;;16.47;100.00;-25530.66;5053617;28;19917;-78
2022/06/07 07:14:08;;;;;;;;;;;;;;;16.06;100.00;-25519.03;5052739;28;19920;-77
2022/06/07 07:16:34;;;;;;;;;;;;;;;15.71;100.00;-25509.28;5053280;28;20015;-76
2022/06/07 07:18:59;;;;;;;;;;;;;;;15.76;100.00;-25510.72;5054147;28;19916;-77
2022/06/07 07:21:29;;;;;;;;;;;;;;;16.46;100.00;-25530.34;5053602;28;19924;-77
2022/06/07 07:23:58;;;;;;;;;;;;;;;17.18;100.00;-25550.81;5053623;28;19962;-75
2022/06/07 07:26:25;;;;;;;;;;;;;;;17.83;100.00;-25568.94;5053789;28;19916;-79
2022/06/07 07:28:50;;;;;;;;;;;;;;;17.34;100.00;-17958.59;5052779;28;19920;-75
2022/06/07 07:31:18;;;;;;;;;;;;;;;17.66;100.00;-18294.44;5056821;28;19917;-74
2022/06/07 07:33:43;;;;;;;;;;;;;;;17.23;100.00;-13658.28;5057145;28;19917;-76
2022/06/07 07:36:09;;;;;;;;;;;;;;;17.16;100.00;-15641.91;5057464;28;20060;-78
2022/06/07 07:38:35;;;;;;;;;;;;;;;17.35;100.00;-17297.63;5058067;28;20005;-79
2022/06/07 07:41:01;;;;;;;;;;;;;;;17.34;100.00;-18950.03;5058725;28;19975;-77
2022/06/07 07:43:26;;;;;;;;;;;;;;;17.13;100.00;-17624.81;5058208;28;20566;-79
2022/06/07 07:45:52;;;;;;;;;;;;;;;17.12;100.00;-17294.09;5057531;28;19916;-78
2022/06/07 07:48:18;;;;;;;;;;;;;;;17.22;100.00;-16634.63;5076261;28;19917;-75
2022/06/07 07:50:44;;;;;;;;;;;;;;;17.93;100.00;-16975.53;5058587;28;19962;-78
2022/06/07 07:53:11;;;;;;;;;;;;;;;18.61;100.00;-9358.50;5058855;28;19921;-76
2022/06/07 07:55:41;;;;;;;;;;;;;;;18.68;100.00;1612.09;5057847;28;20383;-78
2022/06/07 07:58:06;;;;;;;;;;;;;;;18.48;100.00;27991.59;5058089;28;19916;-79
2022/06/07 08:00:32;;;;;;;;;;;;;;;18.03;100.00;46089.66;5057580;28;20394;-76
2022/06/07 08:02:57;;;;;;;;;;;;;;;17.80;100.00;40357.81;5057056;28;19969;-75
2022/06/07 08:05:22;;;;;;;;;;;;;;;18.00;100.00;38358.25;5056638;28;19917;-76
2022/06/07 08:07:48;;;;;;;;;;;;;;;17.89;100.00;47760.25;5057585;28;19965;-75
2022/06/07 08:10:14;;;;;;;;;;;;;;;18.02;100.00;52148.47;5056656;28;20369;-74
2022/06/07 08:12:39;;;;;;;;;;;;;;;17.60;100.00;59860.19;5057042;28;19920;-75
2022/06/07 08:15:06;;;;;;;;;;;;;;;17.34;100.00;64218.06;5057489;28;19950;-74
2022/06/07 08:17:32;;;;;;;;;;;;;;;17.13;100.00;67908.38;5056320;28;19916;-76
2022/06/07 08:19:59;;;;;;;;;;;;;;;16.89;100.00;56752.09;5057403;28;19912;-75
2022/06/07 08:22:25;;;;;;;;;;;;;;;16.83;100.00;44309.59;5040671;28;19920;-77
2022/06/07 08:24:51;;;;;;;;;;;;;;;16.82;100.00;39277.84;5056509;28;19921;-75
2022/06/07 08:27:20;;;;;;;;;;;;;;;16.82;100.00;37602.31;5057175;28;20046;-74
2022/06/07 08:29:45;;;;;;;;;;;;;;;16.86;100.00;34256.13;5056972;28;19999;-75
2022/06/07 08:32:11;;;;;;;;;;;;;;;16.88;100.00;32583.28;5039635;28;20020;-77
2022/06/07 08:37:33;;;;;;;;;;;;;;;16.71;100.00;22882.69;5074207;28;19928;-75
2022/06/07 08:39:58;;;;;;;;;;;;;;;17.16;100.00;16897.97;5041699;28;19927;-76
2022/06/07 08:42:29;;;;;;;;;;;;;;;17.09;100.00;22567.16;5056051;28;19913;-74
2022/06/07 08:44:54;;;;;;;;;;;;;;;17.19;100.00;25578.75;5056495;28;19927;-80
2022/06/07 08:47:30;;;;;;;;;;;;;;;17.37;100.00;24251.25;5056974;28;19912;-77
2022/06/07 08:49:58;;;;;;;;;;;;;;;17.47;100.00;26931.25;5056763;28;19924;-75
2022/06/07 08:52:26;;;;;;;;;;;;;;;17.76;100.00;27616.59;5056015;28;19919;-78
2022/06/07 08:54:51;;;;;;;;;;;;;;;18.12;100.00;23954.59;5056466;28;20012;-75
2022/06/07 08:57:26;;;;;;;;;;;;;;;18.28;100.00;26305.72;5056110;28;19999;-76
2022/06/07 08:59:53;;;;;;;;;;;;;;;18.65;100.00;33703.69;5055211;28;19916;-77
2022/06/07 09:02:33;;;;;;;;;;;;;;;18.55;100.00;42096.31;5056502;28;19916;-77
2022/06/07 09:04:59;;;;;;;;;;;;;;;17.97;100.00;53491.84;5056059;28;19916;-74
2022/06/07 09:07:25;;;;;;;;;;;;;;;17.75;100.00;61226.13;5056381;28;19916;-77
2022/06/07 09:12:37;;;;;;;;;;;;;;;18.27;100.00;60608.00;5073476;28;19923;-75
2022/06/07 09:15:09;;;;;;;;;;;;;;;18.13;100.00;62956.88;5055912;28;20011;-75
2022/06/07 09:17:45;;;;;;;;;;;;;;;17.75;100.00;58864.06;5056432;28;19923;-78
2022/06/07 09:20:21;;;;;;;;;;;;;;;17.67;100.00;48076.72;5056487;28;20007;-76
2022/06/07 09:22:55;;;;;;;;;;;;;;;17.44;100.00;46039.69;5056667;28;19923;-80
2022/06/07 09:25:35;;;;;;;;;;;;;;;17.35;100.00;43344.47;5057381;28;20023;-79
2022/06/07 09:28:03;;;;;;;;;;;;;;;17.61;100.00;37322.97;5056917;28;19943;-78
2022/06/07 09:30:33;;;;;;;;;;;;;;;17.68;100.00;34980.56;5057005;28;20011;-79
2022/06/07 09:33:05;;;;;;;;;;;;;;;17.33;100.00;34621.91;5057015;28;19924;-79
2022/06/07 09:35:39;;;;;;;;;;;;;;;17.44;100.00;30944.72;5056403;28;19916;-79
2022/06/07 09:38:06;;;;;;;;;;;;;;;17.61;100.00;25935.34;5056321;28;19928;-79
2022/06/07 09:40:41;;;;;;;;;;;;;;;17.54;100.00;22923.19;5056022;28;22291;-78
2022/06/07 09:43:15;;;;;;;;;;;;;;;17.88;100.00;21602.25;5056290;28;20422;-79
2022/06/07 09:45:46;;;;;;;;;;;;;;;17.65;100.00;24933.97;5056141;28;20502;-78
2022/06/07 09:48:23;;;;;;;;;;;;;;;17.52;100.00;25261.94;5055898;28;19923;-79
2022/06/07 09:50:56;;;;;;;;;;;;;;;17.33;100.00;21242.88;5056460;28;19916;-80
2022/06/07 09:53:39;;;;;;;;;;;;;;;17.37;100.00;15905.63;5073506;28;19969;-79
2022/06/07 09:56:24;;;;;;;;;;;;;;;17.17;100.00;14898.22;5056065;28;19917;-79
2022/06/07 09:59:12;;;;;;;;;;;;;;;17.18;100.00;11900.38;5056054;28;19924;-76
2022/06/07 10:01:56;;;;;;;;;;;;;;;17.44;100.00;7579.50;5055883;28;19916;-78
2022/06/07 10:04:42;;;;;;;;;;;;;;;17.32;100.00;11238.53;5056428;28;19917;-79
2022/06/07 10:07:15;;;;;;;;;;;;;;;17.33;100.00;12571.09;5056381;28;19917;-80
2022/06/07 10:09:41;;;;;;;;;;;;;;;17.81;100.00;10919.66;5056163;28;19923;-79
2022/06/07 10:12:25;;;;;;;;;;;;;;;17.87;100.00;15924.41;5056105;28;19917;-79
2022/06/07 10:15:11;;;;;;;;;;;;;;;17.83;100.00;17257.94;5055592;28;19921;-79
2022/06/07 10:17:42;;;;;;;;;;;;;;;18.20;100.00;15936.66;5055768;28;20351;-80
2022/06/07 10:20:08;;;;;;;;;;;;;;;18.24;100.00;19278.94;5056293;28;19917;-80
2022/06/07 10:22:39;;;;;;;;;;;;;;;18.30;100.00;23294.34;5054267;28;20019;-79
2022/06/07 10:25:09;;;;;;;;;;;;;;;18.09;100.00;34337.47;5054524;28;19917;-78
2022/06/07 10:27:37;;;;;;;;;;;;;;;18.31;100.00;35358.91;5073148;28;19917;-76
2022/06/07 10:30:21;;;;;;;;;;;;;;;18.40;100.00;40739.38;5055671;28;19921;-80
2022/06/07 10:33:08;;;;;;;;;;;;;;;18.62;100.00;37731.56;5055392;28;19916;-79
2022/06/07 10:35:54;;;;;;;;;;;;;;;18.56;100.00;40079.59;5055691;28;20007;-80
2022/06/07 10:38:39;;;;;;;;;;;;;;;18.31;100.00;44095.00;5055351;28;19920;-77
2022/06/07 10:41:05;;;;;;;;;;;;;;;18.40;100.00;46457.84;5055486;28;19921;-77
2022/06/07 10:43:34;;;;;;;;;;;;;;;18.47;100.00;41417.31;5054866;28;19916;-78
2022/06/07 10:46:00;;;;;;;;;;;;;;;18.29;100.00;34015.63;5073515;28;19916;-81
2022/06/07 10:48:58;;;;;;;;;;;;;;;18.24;100.00;32334.84;5055843;28;19989;-80
2022/06/07 10:54:25;;;;;;;;;;;;;;;18.06;100.00;43066.16;5073895;28;19927;-80
2022/06/07 10:56:56;;;;;;;;;;;;;;;18.03;100.00;47435.47;5054132;28;19920;-78
2022/06/07 10:59:22;;;;;;;;;;;;;;;18.04;100.00;47772.91;5053473;28;19916;-79
2022/06/07 11:02:24;;;;;;;;;;;;;;;18.10;100.00;48115.38;5054155;28;20648;-79
2022/06/07 11:10:44;;;;;;;;;;;;;;;18.30;100.00;52512.38;5071328;28;20280;-79
2022/06/07 11:13:25;;;;;;;;;;;;;;;18.07;100.00;54513.09;5052611;28;19921;-79
2022/06/07 11:16:07;;;;;;;;;;;;;;;18.43;100.00;48818.13;5052859;28;19948;-76
2022/06/07 11:18:33;;;;;;;;;;;;;;;18.97;100.00;48866.06;5053424;28;19916;-78
2022/06/07 11:21:01;;;;;;;;;;;;;;;19.31;100.00;51596.41;5052270;28;19923;-81
2022/06/07 11:23:29;;;;;;;;;;;;;;;19.14;100.00;60364.06;5053665;28;19931;-76
2022/06/07 11:26:04;;;;;;;;;;;;;;;19.32;100.00;51259.34;5051966;28;20312;-77
2022/06/07 11:28:38;;;;;;;;;;;;;;;19.19;100.00;50235.13;5053020;28;19917;-75
2022/06/07 11:31:22;;;;;;;;;;;;;;;18.93;100.00;52235.41;5053573;28;19928;-77
2022/06/07 11:33:58;;;;;;;;;;;;;;;18.75;100.00;52892.47;5051773;28;19916;-78
2022/06/07 11:36:32;;;;;;;;;;;;;;;18.83;100.00;46494.91;5070238;28;20034;-79
2022/06/07 11:38:59;;;;;;;;;;;;;;;18.99;100.00;46172.13;5052944;28;19936;-80
2022/06/07 11:41:37;;;;;;;;;;;;;;;19.25;100.00;42488.22;5052146;28;20317;-79
2022/06/07 11:44:08;;;;;;;;;;;;;;;19.13;100.00;50229.94;5053335;28;19917;-78
2022/06/07 11:46:33;;;;;;;;;;;;;;;19.28;100.00;45522.19;5053263;28;19923;-78
2022/06/07 11:49:19;;;;;;;;;;;;;;;19.21;100.00;45516.53;5052281;28;19916;-81
2022/06/07 11:51:50;;;;;;;;;;;;;;;18.95;100.00;45157.63;5052676;28;19923;-78
2022/06/07 11:54:16;;;;;;;;;;;;;;;19.21;100.00;45516.13;5052340;28;19932;-79
2022/06/07 11:56:44;;;;;;;;;;;;;;;19.36;100.00;41486.94;5053135;28;19923;-78
2022/06/07 11:59:18;;;;;;;;;;;;;;;19.24;100.00;44845.22;5052963;28;19938;-77
2022/06/07 12:02:07;;;;;;;;;;;;;;;18.97;100.00;46169.91;5051676;28;19919;-79
2022/06/07 12:04:41;;;;;;;;;;;;;;;18.96;100.00;34059.75;5038899;28;19924;-78
2022/06/07 12:07:10;;;;;;;;;;;;;;;19.15;100.00;32392.84;5052986;28;20369;-75
2022/06/07 12:09:36;;;;;;;;;;;;;;;19.21;100.00;37101.19;5051563;28;20026;-77
2022/06/07 12:12:18;;;;;;;;;;;;;;;19.39;100.00;38459.59;5053199;28;19916;-78
2022/06/07 12:14:49;;;;;;;;;;;;;;;19.29;100.00;53620.22;5052225;28;19927;-78
2022/06/07 12:17:24;;;;;;;;;;;;;;;19.68;100.00;52306.28;5053115;28;19917;-79
2022/06/07 12:19:50;;;;;;;;;;;;;;;19.93;100.00;61125.84;5055994;28;20267;-79
2022/06/07 12:22:17;;;;;;;;;;;;;;;19.81;100.00;70266.22;5056227;28;19917;-79
2022/06/07 12:24:48;;;;;;;;;;;;;;;19.36;100.00;56330.13;5056572;28;20020;-79
2022/06/07 12:27:35;;;;;;;;;;;;;;;19.56;100.00;41502.16;5056443;28;20261;-77
2022/06/07 12:30:13;;;;;;;;;;;;;;;19.82;100.00;37817.81;5055627;28;19920;-77
2022/06/07 12:32:38;;;;;;;;;;;;;;;19.79;100.00;45902.84;5056385;28;19978;-78
2022/06/07 12:35:14;;;;;;;;;;;;;;;19.91;100.00;47938.13;5073611;28;19959;-77
2022/06/07 12:37:39;;;;;;;;;;;;;;;19.66;100.00;53317.81;5054855;28;19921;-77
2022/06/07 12:40:25;;;;;;;;;;;;;;;19.88;100.00;52325.38;5056388;28;19990;-79
2022/06/07 12:42:51;;;;;;;;;;;;;;;19.96;100.00;45579.84;5055624;28;20015;-76
2022/06/07 12:45:19;;;;;;;;;;;;;;;19.91;100.00;52666.72;5054772;28;20364;-77
2022/06/07 12:47:46;;;;;;;;;;;;;;;19.95;100.00;61467.38;5055316;28;19917;-75
2022/06/07 12:50:24;;;;;;;;;;;;;;;20.09;100.00;60466.31;5054825;28;19925;-76
2022/06/07 12:52:53;;;;;;;;;;;;;;;20.12;100.00;61485.41;5051072;28;19925;-76
2022/06/07 12:55:24;;;;;;;;;;;;;;;19.91;100.00;53680.72;5050963;28;19916;-74
2022/06/07 12:57:58;;;;;;;;;;;;;;;19.56;100.00;40828.59;5054075;28;19920;-74
2022/06/07 13:00:28;;;;;;;;;;;;;;;19.50;100.00;44192.53;5055195;28;19940;-75
2022/06/07 13:02:57;;;;;;;;;;;;;;;19.26;100.00;40469.09;5054819;28;19917;-75